SBI5322 UNAA-UNNT
Flight info
| Callsign | SBI5322 |
|---|---|
| Flight time | 1h 10m |
| Altitude | 30000 |
| Route | N0450F300 DOREM A308 RATKO R116 KESED B926 NATIR |
| Aircraft | A320/M-VGDW/C |
Departure
| Time | 2026-04-16 17:53 |
|---|---|
| Airport | Abakan International Airport (UNAA) |
Arrival
| Time | 2026-04-16 19:03 |
|---|---|
| Airport | Novosibirsk Tolmachevo Airport (UNNT) |
| Time | Latitude | Longitude | Altitude | Speed | Heading |
|---|---|---|---|---|---|
| 2026-04-16 17:38 | 53.74759 | 91.39711 | 807 ft | 0 kts | 294° |
| 2026-04-16 17:48 | 53.74771 | 91.39643 | 809 ft | 7 kts | 243° |
| 2026-04-16 17:49 | 53.74735 | 91.39589 | 810 ft | 7 kts | 207° |
| 2026-04-16 17:49 | 53.74688 | 91.39550 | 811 ft | 7 kts | 206° |
| 2026-04-16 17:49 | 53.74636 | 91.39509 | 811 ft | 8 kts | 205° |
| 2026-04-16 17:49 | 53.74532 | 91.39431 | 810 ft | 32 kts | 206° |
| 2026-04-16 17:50 | 53.74522 | 91.39190 | 812 ft | 17 kts | 237° |
| 2026-04-16 17:50 | 53.74438 | 91.39105 | 812 ft | 14 kts | 228° |
| 2026-04-16 17:50 | 53.74356 | 91.38911 | 811 ft | 21 kts | 234° |
| 2026-04-16 17:50 | 53.74263 | 91.38725 | 814 ft | 19 kts | 207° |
| 2026-04-16 17:51 | 53.74140 | 91.38629 | 815 ft | 19 kts | 205° |
| 2026-04-16 17:51 | 53.74015 | 91.38528 | 815 ft | 20 kts | 206° |
| 2026-04-16 17:51 | 53.73779 | 91.38330 | 815 ft | 48 kts | 206° |
| 2026-04-16 17:51 | 53.73489 | 91.38108 | 818 ft | 43 kts | 206° |
| 2026-04-16 17:52 | 53.73240 | 91.37889 | 817 ft | 34 kts | 206° |
| 2026-04-16 17:52 | 53.73147 | 91.37911 | 816 ft | 7 kts | 3° |
| 2026-04-16 17:52 | 53.73193 | 91.37896 | 816 ft | 8 kts | 21° |
| 2026-04-16 17:52 | 53.73362 | 91.38017 | 818 ft | 66 kts | 22° |
| 2026-04-16 17:53 | 53.74062 | 91.38544 | 815 ft | 149 kts | 31° |
| 2026-04-16 17:53 | 53.75103 | 91.39309 | 1455 ft | 171 kts | 21° |
| 2026-04-16 17:53 | 53.75979 | 91.39997 | 2294 ft | 178 kts | 22° |
| 2026-04-16 17:53 | 53.76692 | 91.40546 | 3004 ft | 183 kts | 22° |
| 2026-04-16 17:54 | 53.77832 | 91.41386 | 4153 ft | 187 kts | 21° |
| 2026-04-16 17:54 | 53.79050 | 91.42348 | 4806 ft | 204 kts | 23° |
| 2026-04-16 17:54 | 53.80375 | 91.43452 | 5437 ft | 223 kts | 23° |
| 2026-04-16 17:54 | 53.81804 | 91.44630 | 6065 ft | 241 kts | 22° |
| 2026-04-16 17:55 | 53.83342 | 91.46015 | 6682 ft | 262 kts | 35° |
| 2026-04-16 17:55 | 53.84516 | 91.48480 | 7286 ft | 283 kts | 66° |
| 2026-04-16 17:55 | 53.84842 | 91.51781 | 8094 ft | 292 kts | 97° |
| 2026-04-16 17:55 | 53.84193 | 91.54939 | 8963 ft | 292 kts | 128° |
| 2026-04-16 17:56 | 53.82716 | 91.57188 | 9807 ft | 286 kts | 159° |
| 2026-04-16 17:56 | 53.80827 | 91.57931 | 10568 ft | 281 kts | 187° |
| 2026-04-16 17:56 | 53.77456 | 91.54985 | 11726 ft | 286 kts | 236° |
| 2026-04-16 17:57 | 53.76670 | 91.51989 | 12588 ft | 284 kts | 259° |
| 2026-04-16 17:57 | 53.76725 | 91.48689 | 13481 ft | 288 kts | 281° |
| 2026-04-16 17:57 | 53.77510 | 91.45559 | 14332 ft | 293 kts | 290° |
| 2026-04-16 17:57 | 53.78363 | 91.42472 | 15133 ft | 294 kts | 289° |
| 2026-04-16 17:58 | 53.79208 | 91.39359 | 15918 ft | 296 kts | 289° |
| 2026-04-16 17:58 | 53.80059 | 91.36230 | 16686 ft | 297 kts | 289° |
| 2026-04-16 17:58 | 53.80931 | 91.33044 | 17425 ft | 299 kts | 289° |
| 2026-04-16 17:58 | 53.81795 | 91.29884 | 18100 ft | 301 kts | 289° |
| 2026-04-16 17:59 | 53.82674 | 91.26676 | 18788 ft | 303 kts | 289° |
| 2026-04-16 17:59 | 53.83561 | 91.23446 | 19464 ft | 305 kts | 289° |
| 2026-04-16 17:59 | 53.84451 | 91.20193 | 20065 ft | 308 kts | 289° |
| 2026-04-16 17:59 | 53.85353 | 91.16891 | 20683 ft | 310 kts | 289° |
| 2026-04-16 18:00 | 53.86244 | 91.13633 | 21307 ft | 312 kts | 289° |
| 2026-04-16 18:00 | 53.87152 | 91.10304 | 21935 ft | 313 kts | 289° |
| 2026-04-16 18:00 | 53.88070 | 91.06941 | 22528 ft | 315 kts | 289° |
| 2026-04-16 18:00 | 53.88981 | 91.03606 | 23047 ft | 318 kts | 289° |
| 2026-04-16 18:01 | 53.89909 | 91.00191 | 23571 ft | 321 kts | 289° |
| 2026-04-16 18:01 | 53.90844 | 90.96751 | 24107 ft | 322 kts | 289° |
| 2026-04-16 18:01 | 53.91784 | 90.93289 | 24617 ft | 324 kts | 289° |
| 2026-04-16 18:01 | 53.92722 | 90.89839 | 25080 ft | 327 kts | 288° |
| 2026-04-16 18:02 | 53.93670 | 90.86327 | 25536 ft | 329 kts | 289° |
| 2026-04-16 18:02 | 53.94617 | 90.82818 | 26041 ft | 330 kts | 289° |
| 2026-04-16 18:02 | 53.95567 | 90.79305 | 26521 ft | 332 kts | 288° |
| 2026-04-16 18:02 | 53.96528 | 90.75734 | 26968 ft | 334 kts | 289° |
| 2026-04-16 18:03 | 53.97493 | 90.72139 | 27404 ft | 336 kts | 289° |
| 2026-04-16 18:03 | 53.98463 | 90.68529 | 27817 ft | 338 kts | 289° |
| 2026-04-16 18:03 | 53.99432 | 90.64910 | 28242 ft | 339 kts | 289° |
| 2026-04-16 18:03 | 54.00400 | 90.61288 | 28664 ft | 340 kts | 289° |
| 2026-04-16 18:04 | 54.01381 | 90.57633 | 29040 ft | 342 kts | 289° |
| 2026-04-16 18:04 | 54.02358 | 90.53970 | 29384 ft | 345 kts | 288° |
| 2026-04-16 18:04 | 54.03346 | 90.50266 | 29740 ft | 346 kts | 288° |
| 2026-04-16 18:04 | 54.04339 | 90.46522 | 30075 ft | 348 kts | 288° |
| 2026-04-16 18:05 | 54.05328 | 90.42802 | 30388 ft | 350 kts | 289° |
| 2026-04-16 18:05 | 54.06324 | 90.39024 | 30732 ft | 351 kts | 289° |
| 2026-04-16 18:05 | 54.07200 | 90.35730 | 31043 ft | 352 kts | 288° |
| 2026-04-16 18:06 | 54.07702 | 90.33833 | 31183 ft | 353 kts | 288° |
| 2026-04-16 18:06 | 54.08067 | 90.32452 | 31282 ft | 354 kts | 288° |
| 2026-04-16 18:06 | 54.08559 | 90.30586 | 31415 ft | 355 kts | 288° |
| 2026-04-16 18:06 | 54.09569 | 90.26744 | 31693 ft | 357 kts | 288° |
| 2026-04-16 18:07 | 54.10584 | 90.22892 | 31866 ft | 358 kts | 288° |
| 2026-04-16 18:07 | 54.11597 | 90.19035 | 31868 ft | 361 kts | 288° |
| 2026-04-16 18:07 | 54.13674 | 90.11100 | 31852 ft | 375 kts | 288° |
| 2026-04-16 18:08 | 54.15801 | 90.02958 | 31826 ft | 377 kts | 288° |
| 2026-04-16 18:08 | 54.17923 | 89.94794 | 31825 ft | 377 kts | 288° |
| 2026-04-16 18:09 | 54.20090 | 89.86697 | 31837 ft | 379 kts | 290° |
| 2026-04-16 18:09 | 54.22572 | 89.78776 | 31842 ft | 381 kts | 292° |
| 2026-04-16 18:10 | 54.25111 | 89.70850 | 31837 ft | 380 kts | 292° |
| 2026-04-16 18:10 | 54.27632 | 89.62962 | 31824 ft | 381 kts | 292° |
| 2026-04-16 18:11 | 54.30162 | 89.55019 | 31825 ft | 380 kts | 292° |
| 2026-04-16 18:11 | 54.32678 | 89.47091 | 31801 ft | 380 kts | 292° |
| 2026-04-16 18:12 | 54.35192 | 89.39147 | 31832 ft | 381 kts | 292° |
| 2026-04-16 18:12 | 54.37690 | 89.31225 | 31850 ft | 379 kts | 291° |
| 2026-04-16 18:13 | 54.40192 | 89.23272 | 31881 ft | 380 kts | 291° |
| 2026-04-16 18:13 | 54.42679 | 89.15338 | 31892 ft | 380 kts | 291° |
| 2026-04-16 18:14 | 54.45161 | 89.07392 | 31892 ft | 379 kts | 291° |
| 2026-04-16 18:14 | 54.47644 | 88.99408 | 31880 ft | 380 kts | 291° |
| 2026-04-16 18:15 | 54.50115 | 88.91446 | 31872 ft | 379 kts | 291° |
| 2026-04-16 18:15 | 54.52587 | 88.83457 | 31865 ft | 379 kts | 291° |
| 2026-04-16 18:16 | 54.55047 | 88.75463 | 31857 ft | 379 kts | 291° |
| 2026-04-16 18:16 | 54.57499 | 88.67474 | 31853 ft | 379 kts | 291° |
| 2026-04-16 18:17 | 54.59857 | 88.59404 | 31853 ft | 379 kts | 290° |
| 2026-04-16 18:17 | 54.62183 | 88.51260 | 31858 ft | 380 kts | 290° |
| 2026-04-16 18:18 | 54.64504 | 88.43115 | 31865 ft | 379 kts | 290° |
| 2026-04-16 18:18 | 54.66808 | 88.35004 | 31864 ft | 379 kts | 290° |
| 2026-04-16 18:19 | 54.69136 | 88.26791 | 31858 ft | 380 kts | 289° |
| 2026-04-16 18:19 | 54.71441 | 88.18633 | 31862 ft | 379 kts | 289° |
| 2026-04-16 18:20 | 54.73740 | 88.10477 | 31875 ft | 381 kts | 289° |
| 2026-04-16 18:20 | 54.76057 | 88.02226 | 31883 ft | 381 kts | 289° |
| 2026-04-16 18:21 | 54.78354 | 87.94025 | 31904 ft | 381 kts | 290° |
| 2026-04-16 18:21 | 54.80664 | 87.85742 | 31925 ft | 381 kts | 289° |
| 2026-04-16 18:22 | 54.82952 | 87.77499 | 31950 ft | 382 kts | 290° |
| 2026-04-16 18:22 | 54.85243 | 87.69215 | 31966 ft | 382 kts | 290° |
| 2026-04-16 18:23 | 54.87526 | 87.60938 | 31967 ft | 383 kts | 289° |
| 2026-04-16 18:23 | 54.89253 | 87.54652 | 31970 ft | 383 kts | 290° |
| 2026-04-16 18:24 | 54.90613 | 87.49704 | 31998 ft | 379 kts | 289° |
| 2026-04-16 18:24 | 54.92862 | 87.41473 | 31992 ft | 379 kts | 289° |
| 2026-04-16 18:25 | 54.95118 | 87.33186 | 31987 ft | 379 kts | 289° |
| 2026-04-16 18:25 | 54.97349 | 87.24867 | 31988 ft | 382 kts | 289° |
| 2026-04-16 18:26 | 54.99573 | 87.16512 | 32005 ft | 384 kts | 289° |
| 2026-04-16 18:26 | 55.01819 | 87.08051 | 32018 ft | 384 kts | 289° |
| 2026-04-16 18:27 | 55.04042 | 86.99653 | 32026 ft | 385 kts | 289° |
| 2026-04-16 18:27 | 55.06275 | 86.91167 | 32029 ft | 385 kts | 289° |
| 2026-04-16 18:28 | 55.08508 | 86.82661 | 32034 ft | 386 kts | 289° |
| 2026-04-16 18:28 | 55.10725 | 86.74181 | 32039 ft | 387 kts | 289° |
| 2026-04-16 18:29 | 55.11404 | 86.71578 | 31999 ft | 384 kts | 289° |
| 2026-04-16 18:29 | 55.12094 | 86.68938 | 31809 ft | 381 kts | 289° |
| 2026-04-16 18:29 | 55.13178 | 86.64780 | 31175 ft | 382 kts | 289° |
| 2026-04-16 18:30 | 55.14276 | 86.60544 | 30251 ft | 387 kts | 289° |
| 2026-04-16 18:30 | 55.15380 | 86.56271 | 29292 ft | 391 kts | 289° |
| 2026-04-16 18:30 | 55.16486 | 86.51981 | 28169 ft | 395 kts | 289° |
| 2026-04-16 18:30 | 55.17601 | 86.47653 | 26944 ft | 400 kts | 290° |
| 2026-04-16 18:31 | 55.18749 | 86.43195 | 25617 ft | 406 kts | 290° |
| 2026-04-16 18:31 | 55.19889 | 86.38760 | 24248 ft | 412 kts | 290° |
| 2026-04-16 18:31 | 55.21059 | 86.34203 | 22739 ft | 417 kts | 290° |
| 2026-04-16 18:31 | 55.22246 | 86.29574 | 21305 ft | 418 kts | 291° |
| 2026-04-16 18:32 | 55.23399 | 86.25082 | 20352 ft | 400 kts | 290° |
| 2026-04-16 18:32 | 55.24500 | 86.20794 | 19290 ft | 375 kts | 290° |
| 2026-04-16 18:32 | 55.25531 | 86.16755 | 18348 ft | 356 kts | 290° |
| 2026-04-16 18:32 | 55.26327 | 86.12811 | 17861 ft | 340 kts | 282° |
| 2026-04-16 18:33 | 55.26714 | 86.08816 | 17588 ft | 324 kts | 274° |
| 2026-04-16 18:33 | 55.26739 | 86.05011 | 17349 ft | 310 kts | 267° |
| 2026-04-16 18:33 | 55.26585 | 86.01279 | 17083 ft | 299 kts | 266° |
| 2026-04-16 18:33 | 55.26419 | 85.97714 | 16632 ft | 296 kts | 266° |
| 2026-04-16 18:34 | 55.26247 | 85.94122 | 16102 ft | 295 kts | 266° |
| 2026-04-16 18:34 | 55.26077 | 85.90596 | 15577 ft | 294 kts | 266° |
| 2026-04-16 18:34 | 55.25905 | 85.87054 | 15112 ft | 292 kts | 266° |
| 2026-04-16 18:34 | 55.25732 | 85.83512 | 14584 ft | 291 kts | 266° |
| 2026-04-16 18:35 | 55.25562 | 85.80038 | 14077 ft | 290 kts | 266° |
| 2026-04-16 18:35 | 55.25388 | 85.76530 | 13534 ft | 290 kts | 266° |
| 2026-04-16 18:35 | 55.25213 | 85.73019 | 13029 ft | 289 kts | 266° |
| 2026-04-16 18:35 | 55.25040 | 85.69548 | 12477 ft | 288 kts | 266° |
| 2026-04-16 18:36 | 55.24864 | 85.66045 | 11948 ft | 288 kts | 266° |
| 2026-04-16 18:36 | 55.24690 | 85.62601 | 11394 ft | 288 kts | 266° |
| 2026-04-16 18:36 | 55.24511 | 85.59102 | 10843 ft | 287 kts | 266° |
| 2026-04-16 18:36 | 55.24336 | 85.55675 | 10428 ft | 282 kts | 266° |
| 2026-04-16 18:37 | 55.24163 | 85.52306 | 10212 ft | 271 kts | 266° |
| 2026-04-16 18:37 | 55.23997 | 85.49118 | 9987 ft | 262 kts | 266° |
| 2026-04-16 18:37 | 55.23833 | 85.45956 | 9599 ft | 259 kts | 267° |
| 2026-04-16 18:37 | 55.23671 | 85.42825 | 9161 ft | 258 kts | 267° |
| 2026-04-16 18:38 | 55.23507 | 85.39707 | 8747 ft | 257 kts | 267° |
| 2026-04-16 18:38 | 55.23424 | 85.38114 | 8535 ft | 256 kts | 267° |
| 2026-04-16 18:38 | 55.23262 | 85.35041 | 8134 ft | 255 kts | 267° |
| 2026-04-16 18:38 | 55.23098 | 85.31939 | 7711 ft | 255 kts | 266° |
| 2026-04-16 18:39 | 55.22935 | 85.28882 | 7301 ft | 254 kts | 266° |
| 2026-04-16 18:39 | 55.22773 | 85.25844 | 7047 ft | 251 kts | 266° |
| 2026-04-16 18:39 | 55.22609 | 85.22800 | 7045 ft | 253 kts | 266° |
| 2026-04-16 18:39 | 55.22443 | 85.19714 | 7046 ft | 254 kts | 266° |
| 2026-04-16 18:40 | 55.22272 | 85.16534 | 7047 ft | 276 kts | 266° |
| 2026-04-16 18:40 | 55.22089 | 85.13144 | 7037 ft | 284 kts | 266° |
| 2026-04-16 18:40 | 55.21898 | 85.09669 | 7041 ft | 286 kts | 266° |
| 2026-04-16 18:40 | 55.21707 | 85.06235 | 7040 ft | 286 kts | 266° |
| 2026-04-16 18:41 | 55.21513 | 85.02748 | 7047 ft | 286 kts | 266° |
| 2026-04-16 18:41 | 55.21321 | 84.99303 | 7040 ft | 286 kts | 266° |
| 2026-04-16 18:41 | 55.21127 | 84.95856 | 7038 ft | 286 kts | 266° |
| 2026-04-16 18:41 | 55.20931 | 84.92382 | 7059 ft | 286 kts | 266° |
| 2026-04-16 18:42 | 55.20737 | 84.88949 | 7045 ft | 287 kts | 266° |
| 2026-04-16 18:42 | 55.20537 | 84.85449 | 7053 ft | 286 kts | 266° |
| 2026-04-16 18:42 | 55.20338 | 84.81989 | 7055 ft | 286 kts | 266° |
| 2026-04-16 18:42 | 55.20141 | 84.78561 | 7049 ft | 286 kts | 266° |
| 2026-04-16 18:43 | 55.19938 | 84.75074 | 7049 ft | 286 kts | 266° |
| 2026-04-16 18:43 | 55.19724 | 84.71635 | 7056 ft | 286 kts | 264° |
| 2026-04-16 18:43 | 55.19350 | 84.68219 | 7060 ft | 287 kts | 259° |
| 2026-04-16 18:43 | 55.18811 | 84.64881 | 7052 ft | 287 kts | 256° |
| 2026-04-16 18:44 | 55.18231 | 84.61506 | 7064 ft | 288 kts | 256° |
| 2026-04-16 18:44 | 55.17654 | 84.58177 | 7059 ft | 288 kts | 256° |
| 2026-04-16 18:44 | 55.17076 | 84.54836 | 7042 ft | 289 kts | 256° |
| 2026-04-16 18:44 | 55.16488 | 84.51447 | 7048 ft | 289 kts | 256° |
| 2026-04-16 18:45 | 55.15910 | 84.48113 | 7039 ft | 289 kts | 256° |
| 2026-04-16 18:45 | 55.15329 | 84.44768 | 7047 ft | 288 kts | 256° |
| 2026-04-16 18:45 | 55.14743 | 84.41395 | 7047 ft | 288 kts | 256° |
| 2026-04-16 18:45 | 55.14164 | 84.38067 | 7048 ft | 288 kts | 256° |
| 2026-04-16 18:46 | 55.13578 | 84.34703 | 7054 ft | 288 kts | 256° |
| 2026-04-16 18:46 | 55.12998 | 84.31381 | 7053 ft | 289 kts | 256° |
| 2026-04-16 18:46 | 55.12402 | 84.27965 | 7054 ft | 293 kts | 256° |
| 2026-04-16 18:46 | 55.11808 | 84.24576 | 7057 ft | 293 kts | 256° |
| 2026-04-16 18:47 | 55.11215 | 84.21196 | 7053 ft | 293 kts | 256° |
| 2026-04-16 18:47 | 55.10612 | 84.17765 | 7052 ft | 293 kts | 256° |
| 2026-04-16 18:47 | 55.10017 | 84.14396 | 7054 ft | 293 kts | 256° |
| 2026-04-16 18:47 | 55.09412 | 84.10978 | 7057 ft | 294 kts | 256° |
| 2026-04-16 18:48 | 55.08815 | 84.07602 | 7059 ft | 294 kts | 256° |
| 2026-04-16 18:48 | 55.08239 | 84.04183 | 7059 ft | 294 kts | 259° |
| 2026-04-16 18:48 | 55.07853 | 84.00656 | 7056 ft | 293 kts | 265° |
| 2026-04-16 18:48 | 55.07621 | 83.97144 | 7057 ft | 293 kts | 266° |
| 2026-04-16 18:49 | 55.07410 | 83.93639 | 7055 ft | 292 kts | 267° |
| 2026-04-16 18:49 | 55.07200 | 83.90142 | 7051 ft | 291 kts | 267° |
| 2026-04-16 18:49 | 55.06986 | 83.86599 | 7049 ft | 291 kts | 267° |
| 2026-04-16 18:49 | 55.06772 | 83.83106 | 7049 ft | 291 kts | 266° |
| 2026-04-16 18:50 | 55.06706 | 83.82032 | 7046 ft | 291 kts | 267° |
| 2026-04-16 18:50 | 55.06661 | 83.81295 | 7013 ft | 291 kts | 266° |
| 2026-04-16 18:50 | 55.06444 | 83.77768 | 7025 ft | 292 kts | 266° |
| 2026-04-16 18:50 | 55.06224 | 83.74274 | 7035 ft | 292 kts | 266° |
| 2026-04-16 18:51 | 55.06003 | 83.70783 | 7036 ft | 292 kts | 266° |
| 2026-04-16 18:51 | 55.05779 | 83.67250 | 7042 ft | 292 kts | 266° |
| 2026-04-16 18:51 | 55.05555 | 83.63743 | 7045 ft | 292 kts | 266° |
| 2026-04-16 18:51 | 55.05329 | 83.60244 | 7049 ft | 292 kts | 266° |
| 2026-04-16 18:52 | 55.05101 | 83.56711 | 7053 ft | 292 kts | 266° |
| 2026-04-16 18:52 | 55.04877 | 83.53222 | 7050 ft | 291 kts | 267° |
| 2026-04-16 18:52 | 55.04653 | 83.49789 | 7013 ft | 280 kts | 267° |
| 2026-04-16 18:52 | 55.04323 | 83.46477 | 6891 ft | 275 kts | 255° |
| 2026-04-16 18:53 | 55.03509 | 83.43473 | 6763 ft | 277 kts | 245° |
| 2026-04-16 18:53 | 55.02564 | 83.40582 | 6631 ft | 276 kts | 244° |
| 2026-04-16 18:53 | 55.01613 | 83.37660 | 6495 ft | 275 kts | 245° |
| 2026-04-16 18:53 | 55.00700 | 83.34757 | 6351 ft | 274 kts | 245° |
| 2026-04-16 18:54 | 54.99806 | 83.31838 | 6177 ft | 274 kts | 245° |
| 2026-04-16 18:54 | 54.98924 | 83.28914 | 5976 ft | 273 kts | 245° |
| 2026-04-16 18:54 | 54.98049 | 83.25993 | 5748 ft | 272 kts | 245° |
| 2026-04-16 18:54 | 54.97184 | 83.23090 | 5448 ft | 271 kts | 245° |
| 2026-04-16 18:55 | 54.96323 | 83.20198 | 5122 ft | 268 kts | 245° |
| 2026-04-16 18:55 | 54.95490 | 83.17415 | 5059 ft | 253 kts | 245° |
| 2026-04-16 18:55 | 54.94705 | 83.14796 | 5033 ft | 238 kts | 245° |
| 2026-04-16 18:55 | 54.94170 | 83.13012 | 4962 ft | 230 kts | 245° |
| 2026-04-16 18:56 | 54.93778 | 83.11700 | 4873 ft | 226 kts | 245° |
| 2026-04-16 18:56 | 54.93136 | 83.09274 | 4701 ft | 216 kts | 259° |
| 2026-04-16 18:56 | 54.93296 | 83.06802 | 4514 ft | 204 kts | 301° |
| 2026-04-16 18:56 | 54.94176 | 83.04986 | 4370 ft | 196 kts | 315° |
| 2026-04-16 18:57 | 54.95150 | 83.03359 | 4217 ft | 189 kts | 315° |
| 2026-04-16 18:57 | 54.96061 | 83.01779 | 4063 ft | 182 kts | 314° |
| 2026-04-16 18:57 | 54.96917 | 83.00217 | 3910 ft | 176 kts | 313° |
| 2026-04-16 18:58 | 54.98534 | 82.97124 | 3482 ft | 172 kts | 311° |
| 2026-04-16 18:58 | 54.99329 | 82.95570 | 3225 ft | 172 kts | 311° |
| 2026-04-16 18:58 | 54.99464 | 82.95306 | 3182 ft | 172 kts | 311° |
| 2026-04-16 18:58 | 55.00186 | 82.93886 | 3006 ft | 170 kts | 311° |
| 2026-04-16 18:59 | 55.00962 | 82.92355 | 2699 ft | 171 kts | 311° |
| 2026-04-16 18:59 | 55.01740 | 82.90817 | 2416 ft | 167 kts | 310° |
| 2026-04-16 18:59 | 55.02478 | 82.89358 | 2222 ft | 156 kts | 310° |
| 2026-04-16 18:59 | 55.03070 | 82.87869 | 1970 ft | 145 kts | 285° |
| 2026-04-16 19:00 | 55.03116 | 82.86234 | 1952 ft | 130 kts | 266° |
| 2026-04-16 19:00 | 55.03021 | 82.84672 | 1965 ft | 127 kts | 264° |
| 2026-04-16 19:00 | 55.02901 | 82.83170 | 1952 ft | 124 kts | 262° |
| 2026-04-16 19:00 | 55.02771 | 82.81692 | 1957 ft | 123 kts | 262° |
| 2026-04-16 19:01 | 55.02638 | 82.80230 | 1874 ft | 124 kts | 262° |
| 2026-04-16 19:01 | 55.02498 | 82.78722 | 1698 ft | 125 kts | 262° |
| 2026-04-16 19:01 | 55.02360 | 82.77239 | 1523 ft | 125 kts | 262° |
| 2026-04-16 19:01 | 55.02223 | 82.75754 | 1346 ft | 125 kts | 261° |
| 2026-04-16 19:02 | 55.02085 | 82.74265 | 1170 ft | 125 kts | 261° |
| 2026-04-16 19:02 | 55.01948 | 82.72769 | 991 ft | 126 kts | 261° |
| 2026-04-16 19:02 | 55.01808 | 82.71247 | 809 ft | 126 kts | 261° |
| 2026-04-16 19:02 | 55.01671 | 82.69740 | 629 ft | 126 kts | 261° |
| 2026-04-16 19:03 | 55.01535 | 82.68230 | 453 ft | 127 kts | 261° |
| 2026-04-16 19:03 | 55.01400 | 82.66715 | 376 ft | 125 kts | 261° |
| 2026-04-16 19:03 | 55.01277 | 82.65383 | 355 ft | 91 kts | 262° |
| 2026-04-16 19:03 | 55.01199 | 82.64590 | 354 ft | 42 kts | 259° |
| 2026-04-16 19:04 | 55.01174 | 82.64346 | 355 ft | 10 kts | 261° |
| 2026-04-16 19:04 | 55.01162 | 82.64220 | 355 ft | 11 kts | 261° |
| 2026-04-16 19:04 | 55.01147 | 82.64068 | 353 ft | 14 kts | 259° |
| 2026-04-16 19:04 | 55.01076 | 82.63979 | 354 ft | 13 kts | 183° |
| 2026-04-16 19:05 | 55.00996 | 82.64036 | 355 ft | 13 kts | 118° |
| 2026-04-16 19:05 | 55.00966 | 82.64195 | 355 ft | 14 kts | 103° |
| 2026-04-16 19:05 | 55.00948 | 82.64382 | 355 ft | 16 kts | 99° |
| 2026-04-16 19:05 | 55.00927 | 82.64580 | 355 ft | 17 kts | 102° |
| 2026-04-16 19:06 | 55.00898 | 82.64789 | 355 ft | 18 kts | 103° |
| 2026-04-16 19:06 | 55.00870 | 82.65005 | 355 ft | 18 kts | 99° |
| 2026-04-16 19:06 | 55.00881 | 82.65231 | 355 ft | 19 kts | 83° |
| 2026-04-16 19:06 | 55.00898 | 82.65455 | 358 ft | 18 kts | 81° |
| 2026-04-16 19:07 | 55.00919 | 82.65672 | 359 ft | 18 kts | 80° |
| 2026-04-16 19:07 | 55.00939 | 82.65891 | 360 ft | 18 kts | 82° |
| 2026-04-16 19:07 | 55.00962 | 82.66117 | 360 ft | 19 kts | 66° |
| 2026-04-16 19:07 | 55.01009 | 82.66299 | 359 ft | 9 kts | 66° |
| 2026-04-16 19:08 | 55.01022 | 82.66367 | 359 ft | 21 kts | 89° |
| 2026-04-16 19:08 | 55.00987 | 82.66400 | 359 ft | 5 kts | 178° |
| 2026-04-16 19:08 | 55.00950 | 82.66418 | 359 ft | 3 kts | 167° |
| 2026-04-16 19:08 | 55.00943 | 82.66419 | 359 ft | 0 kts | 169° |
| 2026-04-16 19:09 | 55.00940 | 82.66421 | 359 ft | 0 kts | 169° |
| 2026-04-16 19:09 | 55.00939 | 82.66421 | 359 ft | 0 kts | 169° |